sensor_id;sensor_type;location;lat;lon;timestamp;P1;durP1;ratioP1;P2;durP2;ratioP2
7985;SDS011;4038;42.612;23.066;2023-05-02T00:00:26;27.35;;;25.35;;
7985;SDS011;4038;42.612;23.066;2023-05-02T00:02:52;27.08;;;24.73;;
7985;SDS011;4038;42.612;23.066;2023-05-02T00:05:18;26.92;;;24.35;;
7985;SDS011;4038;42.612;23.066;2023-05-02T00:07:43;26.55;;;24.23;;
7985;SDS011;4038;42.612;23.066;2023-05-02T00:10:09;27.48;;;24.90;;
7985;SDS011;4038;42.612;23.066;2023-05-02T00:12:34;26.73;;;24.25;;
7985;SDS011;4038;42.612;23.066;2023-05-02T00:15:00;27.10;;;24.40;;
7985;SDS011;4038;42.612;23.066;2023-05-02T00:17:25;26.92;;;24.35;;
7985;SDS011;4038;42.612;23.066;2023-05-02T00:19:51;27.33;;;24.85;;
7985;SDS011;4038;42.612;23.066;2023-05-02T00:22:16;27.08;;;24.63;;
7985;SDS011;4038;42.612;23.066;2023-05-02T00:24:41;26.02;;;23.65;;
7985;SDS011;4038;42.612;23.066;2023-05-02T00:27:07;26.08;;;23.67;;
7985;SDS011;4038;42.612;23.066;2023-05-02T00:29:32;27.42;;;24.55;;
7985;SDS011;4038;42.612;23.066;2023-05-02T00:31:58;27.65;;;25.35;;
7985;SDS011;4038;42.612;23.066;2023-05-02T00:34:27;28.90;;;25.90;;
7985;SDS011;4038;42.612;23.066;2023-05-02T00:36:54;26.52;;;24.05;;
7985;SDS011;4038;42.612;23.066;2023-05-02T00:39:19;26.27;;;23.97;;
7985;SDS011;4038;42.612;23.066;2023-05-02T00:41:45;27.40;;;24.92;;
7985;SDS011;4038;42.612;23.066;2023-05-02T00:44:10;26.97;;;24.50;;
7985;SDS011;4038;42.612;23.066;2023-05-02T00:46:35;27.30;;;24.45;;
7985;SDS011;4038;42.612;23.066;2023-05-02T00:49:01;25.30;;;23.10;;
7985;SDS011;4038;42.612;23.066;2023-05-02T00:51:27;26.47;;;23.93;;
7985;SDS011;4038;42.612;23.066;2023-05-02T00:53:52;26.27;;;23.87;;
7985;SDS011;4038;42.612;23.066;2023-05-02T00:56:18;25.60;;;23.33;;
7985;SDS011;4038;42.612;23.066;2023-05-02T00:58:43;26.10;;;23.63;;
7985;SDS011;4038;42.612;23.066;2023-05-02T01:01:15;26.50;;;24.13;;
7985;SDS011;4038;42.612;23.066;2023-05-02T01:06:45;25.87;;;23.70;;
7985;SDS011;4038;42.612;23.066;2023-05-02T01:14:49;25.00;;;22.70;;
7985;SDS011;4038;42.612;23.066;2023-05-02T01:17:19;28.30;;;24.77;;
7985;SDS011;4038;42.612;23.066;2023-05-02T01:19:49;36.70;;;24.50;;
7985;SDS011;4038;42.612;23.066;2023-05-02T01:22:18;30.30;;;23.60;;
7985;SDS011;4038;42.612;23.066;2023-05-02T01:30:07;24.70;;;22.80;;
7985;SDS011;4038;42.612;23.066;2023-05-02T01:32:33;25.47;;;23.57;;
7985;SDS011;4038;42.612;23.066;2023-05-02T01:35:03;23.87;;;21.80;;
7985;SDS011;4038;42.612;23.066;2023-05-02T01:37:31;23.60;;;21.50;;
7985;SDS011;4038;42.612;23.066;2023-05-02T01:39:58;23.83;;;21.77;;
7985;SDS011;4038;42.612;23.066;2023-05-02T01:42:25;36.33;;;25.20;;
7985;SDS011;4038;42.612;23.066;2023-05-02T01:44:51;39.97;;;25.70;;
7985;SDS011;4038;42.612;23.066;2023-05-02T01:47:20;44.63;;;26.20;;
7985;SDS011;4038;42.612;23.066;2023-05-02T01:49:47;50.07;;;27.50;;
7985;SDS011;4038;42.612;23.066;2023-05-02T01:52:12;24.40;;;22.30;;
7985;SDS011;4038;42.612;23.066;2023-05-02T01:54:39;24.97;;;22.73;;
7985;SDS011;4038;42.612;23.066;2023-05-02T01:57:06;24.87;;;22.87;;
7985;SDS011;4038;42.612;23.066;2023-05-02T01:59:34;33.77;;;25.97;;
7985;SDS011;4038;42.612;23.066;2023-05-02T02:02:01;24.93;;;22.93;;
7985;SDS011;4038;42.612;23.066;2023-05-02T02:04:28;25.03;;;22.97;;
7985;SDS011;4038;42.612;23.066;2023-05-02T02:07:02;24.25;;;22.27;;
7985;SDS011;4038;42.612;23.066;2023-05-02T02:09:32;24.10;;;22.30;;
7985;SDS011;4038;42.612;23.066;2023-05-02T02:12:05;24.00;;;22.10;;
7985;SDS011;4038;42.612;23.066;2023-05-02T02:14:38;24.70;;;22.90;;
7985;SDS011;4038;42.612;23.066;2023-05-02T02:17:11;24.58;;;22.73;;
7985;SDS011;4038;42.612;23.066;2023-05-02T02:19:40;24.43;;;22.37;;
7985;SDS011;4038;42.612;23.066;2023-05-02T02:22:07;24.47;;;22.47;;
7985;SDS011;4038;42.612;23.066;2023-05-02T02:24:34;25.03;;;23.07;;
7985;SDS011;4038;42.612;23.066;2023-05-02T02:27:03;24.97;;;22.70;;
7985;SDS011;4038;42.612;23.066;2023-05-02T02:29:28;26.10;;;23.90;;
7985;SDS011;4038;42.612;23.066;2023-05-02T02:31:54;24.88;;;22.83;;
7985;SDS011;4038;42.612;23.066;2023-05-02T02:34:19;25.02;;;23.00;;
7985;SDS011;4038;42.612;23.066;2023-05-02T02:39:34;26.10;;;23.63;;
7985;SDS011;4038;42.612;23.066;2023-05-02T02:42:17;25.37;;;23.10;;
7985;SDS011;4038;42.612;23.066;2023-05-02T02:44:57;25.03;;;23.00;;
7985;SDS011;4038;42.612;23.066;2023-05-02T02:55:11;25.07;;;23.03;;
7985;SDS011;4038;42.612;23.066;2023-05-02T02:57:50;24.13;;;22.23;;
7985;SDS011;4038;42.612;23.066;2023-05-02T03:00:23;24.63;;;22.53;;
7985;SDS011;4038;42.612;23.066;2023-05-02T03:02:52;25.50;;;23.30;;
7985;SDS011;4038;42.612;23.066;2023-05-02T03:05:18;25.27;;;23.03;;
7985;SDS011;4038;42.612;23.066;2023-05-02T03:07:46;23.23;;;21.33;;
7985;SDS011;4038;42.612;23.066;2023-05-02T03:10:11;24.73;;;22.73;;
7985;SDS011;4038;42.612;23.066;2023-05-02T03:12:37;24.17;;;22.07;;
7985;SDS011;4038;42.612;23.066;2023-05-02T03:17:48;25.13;;;22.70;;
7985;SDS011;4038;42.612;23.066;2023-05-02T03:20:13;24.47;;;22.43;;
7985;SDS011;4038;42.612;23.066;2023-05-02T03:22:38;23.00;;;21.10;;
7985;SDS011;4038;42.612;23.066;2023-05-02T03:25:04;22.67;;;20.80;;
7985;SDS011;4038;42.612;23.066;2023-05-02T03:27:30;23.70;;;21.40;;
7985;SDS011;4038;42.612;23.066;2023-05-02T03:29:56;23.00;;;21.17;;
7985;SDS011;4038;42.612;23.066;2023-05-02T03:32:21;22.30;;;20.63;;
7985;SDS011;4038;42.612;23.066;2023-05-02T03:34:47;22.67;;;20.87;;
7985;SDS011;4038;42.612;23.066;2023-05-02T03:37:12;22.37;;;20.63;;
7985;SDS011;4038;42.612;23.066;2023-05-02T03:39:38;21.87;;;20.23;;
7985;SDS011;4038;42.612;23.066;2023-05-02T03:42:03;22.70;;;21.00;;
7985;SDS011;4038;42.612;23.066;2023-05-02T03:44:29;22.70;;;20.93;;
7985;SDS011;4038;42.612;23.066;2023-05-02T03:46:55;23.73;;;21.83;;
7985;SDS011;4038;42.612;23.066;2023-05-02T03:49:20;23.33;;;21.57;;
7985;SDS011;4038;42.612;23.066;2023-05-02T03:51:45;23.57;;;21.47;;
7985;SDS011;4038;42.612;23.066;2023-05-02T03:54:11;22.77;;;21.03;;
7985;SDS011;4038;42.612;23.066;2023-05-02T03:56:36;24.57;;;22.40;;
7985;SDS011;4038;42.612;23.066;2023-05-02T03:59:03;24.30;;;22.30;;
7985;SDS011;4038;42.612;23.066;2023-05-02T04:01:29;23.43;;;21.63;;
7985;SDS011;4038;42.612;23.066;2023-05-02T04:03:55;23.10;;;21.37;;
7985;SDS011;4038;42.612;23.066;2023-05-02T04:06:21;23.90;;;21.50;;
7985;SDS011;4038;42.612;23.066;2023-05-02T04:08:46;23.47;;;21.67;;
7985;SDS011;4038;42.612;23.066;2023-05-02T04:11:13;24.37;;;22.43;;
7985;SDS011;4038;42.612;23.066;2023-05-02T04:13:48;24.57;;;22.60;;
7985;SDS011;4038;42.612;23.066;2023-05-02T04:16:13;23.27;;;21.37;;
7985;SDS011;4038;42.612;23.066;2023-05-02T04:18:38;24.50;;;22.50;;
7985;SDS011;4038;42.612;23.066;2023-05-02T04:21:06;24.92;;;22.80;;
7985;SDS011;4038;42.612;23.066;2023-05-02T04:23:32;26.67;;;24.35;;
7985;SDS011;4038;42.612;23.066;2023-05-02T04:25:57;26.38;;;24.00;;
7985;SDS011;4038;42.612;23.066;2023-05-02T04:28:23;27.70;;;25.30;;
7985;SDS011;4038;42.612;23.066;2023-05-02T04:30:48;29.10;;;26.23;;
7985;SDS011;4038;42.612;23.066;2023-05-02T04:33:14;27.08;;;24.73;;
7985;SDS011;4038;42.612;23.066;2023-05-02T04:35:40;26.73;;;24.30;;
7985;SDS011;4038;42.612;23.066;2023-05-02T04:38:05;26.30;;;23.60;;
7985;SDS011;4038;42.612;23.066;2023-05-02T04:40:32;26.48;;;24.27;;
7985;SDS011;4038;42.612;23.066;2023-05-02T04:42:58;25.92;;;23.88;;
7985;SDS011;4038;42.612;23.066;2023-05-02T04:45:24;27.15;;;24.85;;
7985;SDS011;4038;42.612;23.066;2023-05-02T04:47:50;26.67;;;24.20;;
7985;SDS011;4038;42.612;23.066;2023-05-02T04:50:15;27.83;;;25.15;;
7985;SDS011;4038;42.612;23.066;2023-05-02T04:52:40;27.10;;;24.52;;
7985;SDS011;4038;42.612;23.066;2023-05-02T04:55:06;31.23;;;26.63;;
7985;SDS011;4038;42.612;23.066;2023-05-02T04:57:32;29.95;;;26.75;;
7985;SDS011;4038;42.612;23.066;2023-05-02T04:59:57;33.78;;;26.33;;
7985;SDS011;4038;42.612;23.066;2023-05-02T05:02:23;35.50;;;25.70;;
7985;SDS011;4038;42.612;23.066;2023-05-02T05:05:04;36.55;;;26.67;;
7985;SDS011;4038;42.612;23.066;2023-05-02T05:07:30;35.22;;;26.25;;
7985;SDS011;4038;42.612;23.066;2023-05-02T05:09:55;37.50;;;27.10;;
7985;SDS011;4038;42.612;23.066;2023-05-02T05:12:21;32.35;;;26.10;;
7985;SDS011;4038;42.612;23.066;2023-05-02T05:14:46;36.58;;;26.88;;
7985;SDS011;4038;42.612;23.066;2023-05-02T05:17:12;39.53;;;27.77;;
7985;SDS011;4038;42.612;23.066;2023-05-02T05:19:37;37.90;;;27.92;;
7985;SDS011;4038;42.612;23.066;2023-05-02T05:22:03;33.70;;;27.27;;
7985;SDS011;4038;42.612;23.066;2023-05-02T05:24:28;36.08;;;27.77;;
7985;SDS011;4038;42.612;23.066;2023-05-02T05:26:53;30.27;;;26.77;;
7985;SDS011;4038;42.612;23.066;2023-05-02T05:29:19;33.72;;;28.60;;
7985;SDS011;4038;42.612;23.066;2023-05-02T05:31:44;36.22;;;28.65;;
7985;SDS011;4038;42.612;23.066;2023-05-02T05:34:09;33.67;;;28.48;;
7985;SDS011;4038;42.612;23.066;2023-05-02T05:36:35;34.85;;;28.38;;
7985;SDS011;4038;42.612;23.066;2023-05-02T05:39:02;35.60;;;27.77;;
7985;SDS011;4038;42.612;23.066;2023-05-02T05:41:28;32.40;;;26.80;;
7985;SDS011;4038;42.612;23.066;2023-05-02T05:43:54;36.05;;;28.67;;
7985;SDS011;4038;42.612;23.066;2023-05-02T05:46:20;33.28;;;28.25;;
7985;SDS011;4038;42.612;23.066;2023-05-02T05:48:46;40.00;;;26.95;;
7985;SDS011;4038;42.612;23.066;2023-05-02T05:51:11;33.38;;;26.75;;
7985;SDS011;4038;42.612;23.066;2023-05-02T05:53:37;33.55;;;25.15;;
7985;SDS011;4038;42.612;23.066;2023-05-02T05:56:12;27.90;;;24.80;;
7985;SDS011;4038;42.612;23.066;2023-05-02T05:58:38;30.83;;;25.20;;
7985;SDS011;4038;42.612;23.066;2023-05-02T06:01:04;27.30;;;24.60;;
7985;SDS011;4038;42.612;23.066;2023-05-02T06:03:29;30.30;;;26.98;;
7985;SDS011;4038;42.612;23.066;2023-05-02T06:05:55;34.00;;;28.00;;
7985;SDS011;4038;42.612;23.066;2023-05-02T06:08:20;32.72;;;27.38;;
7985;SDS011;4038;42.612;23.066;2023-05-02T06:10:46;32.13;;;26.83;;
7985;SDS011;4038;42.612;23.066;2023-05-02T06:13:11;32.47;;;27.60;;
7985;SDS011;4038;42.612;23.066;2023-05-02T06:15:37;36.83;;;27.15;;
7985;SDS011;4038;42.612;23.066;2023-05-02T06:18:02;40.08;;;29.35;;
7985;SDS011;4038;42.612;23.066;2023-05-02T06:20:28;36.58;;;28.52;;
7985;SDS011;4038;42.612;23.066;2023-05-02T06:22:53;34.72;;;28.73;;
7985;SDS011;4038;42.612;23.066;2023-05-02T06:25:18;44.95;;;29.05;;
7985;SDS011;4038;42.612;23.066;2023-05-02T06:27:44;37.08;;;28.63;;
7985;SDS011;4038;42.612;23.066;2023-05-02T06:30:09;35.28;;;27.13;;
7985;SDS011;4038;42.612;23.066;2023-05-02T06:32:35;36.33;;;28.58;;
7985;SDS011;4038;42.612;23.066;2023-05-02T06:35:04;30.95;;;27.48;;
7985;SDS011;4038;42.612;23.066;2023-05-02T06:37:33;34.17;;;28.60;;
7985;SDS011;4038;42.612;23.066;2023-05-02T06:39:59;29.10;;;26.35;;
7985;SDS011;4038;42.612;23.066;2023-05-02T06:42:25;26.60;;;24.08;;
7985;SDS011;4038;42.612;23.066;2023-05-02T06:44:50;27.15;;;24.75;;
7985;SDS011;4038;42.612;23.066;2023-05-02T06:47:16;26.77;;;24.15;;
7985;SDS011;4038;42.612;23.066;2023-05-02T06:49:41;27.10;;;24.38;;
7985;SDS011;4038;42.612;23.066;2023-05-02T06:52:07;28.17;;;25.23;;
7985;SDS011;4038;42.612;23.066;2023-05-02T06:54:32;27.02;;;24.70;;
7985;SDS011;4038;42.612;23.066;2023-05-02T06:57:00;26.08;;;23.63;;
7985;SDS011;4038;42.612;23.066;2023-05-02T06:59:26;27.88;;;25.55;;
7985;SDS011;4038;42.612;23.066;2023-05-02T07:01:51;25.92;;;23.73;;
7985;SDS011;4038;42.612;23.066;2023-05-02T07:04:17;31.02;;;28.33;;
7985;SDS011;4038;42.612;23.066;2023-05-02T07:06:42;28.50;;;25.80;;
7985;SDS011;4038;42.612;23.066;2023-05-02T07:09:08;25.92;;;23.75;;
7985;SDS011;4038;42.612;23.066;2023-05-02T07:11:33;26.25;;;23.65;;
7985;SDS011;4038;42.612;23.066;2023-05-02T07:13:59;28.10;;;25.80;;
7985;SDS011;4038;42.612;23.066;2023-05-02T07:16:24;26.70;;;24.38;;
7985;SDS011;4038;42.612;23.066;2023-05-02T07:18:50;25.67;;;23.50;;
7985;SDS011;4038;42.612;23.066;2023-05-02T07:21:15;26.83;;;24.90;;
7985;SDS011;4038;42.612;23.066;2023-05-02T07:23:43;26.65;;;24.45;;
7985;SDS011;4038;42.612;23.066;2023-05-02T07:26:08;26.35;;;24.20;;
7985;SDS011;4038;42.612;23.066;2023-05-02T07:28:34;26.92;;;24.42;;
7985;SDS011;4038;42.612;23.066;2023-05-02T07:30:59;26.98;;;24.50;;
7985;SDS011;4038;42.612;23.066;2023-05-02T07:33:27;26.70;;;24.40;;
7985;SDS011;4038;42.612;23.066;2023-05-02T07:35:53;26.25;;;23.85;;
7985;SDS011;4038;42.612;23.066;2023-05-02T07:38:22;27.05;;;24.40;;
7985;SDS011;4038;42.612;23.066;2023-05-02T07:40:48;28.02;;;24.77;;
7985;SDS011;4038;42.612;23.066;2023-05-02T07:43:13;27.38;;;24.42;;
7985;SDS011;4038;42.612;23.066;2023-05-02T07:45:40;28.05;;;25.13;;
7985;SDS011;4038;42.612;23.066;2023-05-02T07:48:05;27.30;;;24.55;;
7985;SDS011;4038;42.612;23.066;2023-05-02T07:50:30;27.17;;;24.58;;
7985;SDS011;4038;42.612;23.066;2023-05-02T07:52:56;27.25;;;24.42;;
7985;SDS011;4038;42.612;23.066;2023-05-02T07:55:21;27.63;;;25.02;;
7985;SDS011;4038;42.612;23.066;2023-05-02T07:57:50;24.90;;;22.90;;
7985;SDS011;4038;42.612;23.066;2023-05-02T08:00:16;25.15;;;23.08;;
7985;SDS011;4038;42.612;23.066;2023-05-02T08:02:41;26.60;;;24.20;;
7985;SDS011;4038;42.612;23.066;2023-05-02T08:05:07;24.90;;;22.83;;
7985;SDS011;4038;42.612;23.066;2023-05-02T08:07:44;26.00;;;23.60;;
7985;SDS011;4038;42.612;23.066;2023-05-02T08:10:10;26.73;;;24.63;;
7985;SDS011;4038;42.612;23.066;2023-05-02T08:12:39;27.00;;;24.83;;
7985;SDS011;4038;42.612;23.066;2023-05-02T08:15:06;27.08;;;24.83;;
7985;SDS011;4038;42.612;23.066;2023-05-02T08:17:33;24.98;;;23.05;;
7985;SDS011;4038;42.612;23.066;2023-05-02T08:19:58;25.75;;;23.77;;
7985;SDS011;4038;42.612;23.066;2023-05-02T08:22:25;26.25;;;24.13;;
7985;SDS011;4038;42.612;23.066;2023-05-02T08:24:50;27.05;;;24.95;;
7985;SDS011;4038;42.612;23.066;2023-05-02T08:27:16;24.55;;;22.80;;
7985;SDS011;4038;42.612;23.066;2023-05-02T08:29:41;24.77;;;22.98;;
7985;SDS011;4038;42.612;23.066;2023-05-02T08:32:06;25.65;;;23.75;;
7985;SDS011;4038;42.612;23.066;2023-05-02T08:34:32;25.17;;;22.70;;
7985;SDS011;4038;42.612;23.066;2023-05-02T08:36:58;24.15;;;22.50;;
7985;SDS011;4038;42.612;23.066;2023-05-02T08:39:23;25.27;;;23.52;;
7985;SDS011;4038;42.612;23.066;2023-05-02T08:41:48;24.98;;;22.98;;
7985;SDS011;4038;42.612;23.066;2023-05-02T08:44:14;25.40;;;23.60;;
7985;SDS011;4038;42.612;23.066;2023-05-02T08:46:40;25.30;;;23.38;;
7985;SDS011;4038;42.612;23.066;2023-05-02T08:49:07;24.90;;;23.10;;
7985;SDS011;4038;42.612;23.066;2023-05-02T08:51:35;26.48;;;24.38;;
7985;SDS011;4038;42.612;23.066;2023-05-02T08:54:01;25.15;;;23.25;;
7985;SDS011;4038;42.612;23.066;2023-05-02T08:56:28;24.88;;;23.25;;
7985;SDS011;4038;42.612;23.066;2023-05-02T08:58:53;24.90;;;23.30;;
7985;SDS011;4038;42.612;23.066;2023-05-02T09:01:21;25.75;;;23.95;;
7985;SDS011;4038;42.612;23.066;2023-05-02T09:03:47;24.60;;;22.90;;
7985;SDS011;4038;42.612;23.066;2023-05-02T09:08:47;23.98;;;22.40;;
7985;SDS011;4038;42.612;23.066;2023-05-02T09:11:14;23.63;;;21.92;;
7985;SDS011;4038;42.612;23.066;2023-05-02T09:13:47;24.10;;;22.40;;
7985;SDS011;4038;42.612;23.066;2023-05-02T09:16:15;23.60;;;21.90;;
7985;SDS011;4038;42.612;23.066;2023-05-02T09:18:43;22.45;;;20.95;;
7985;SDS011;4038;42.612;23.066;2023-05-02T09:21:16;23.65;;;22.10;;
7985;SDS011;4038;42.612;23.066;2023-05-02T09:23:43;23.90;;;22.40;;
7985;SDS011;4038;42.612;23.066;2023-05-02T09:26:17;23.95;;;22.35;;
7985;SDS011;4038;42.612;23.066;2023-05-02T09:28:51;23.88;;;22.25;;
7985;SDS011;4038;42.612;23.066;2023-05-02T09:31:19;22.92;;;21.42;;
7985;SDS011;4038;42.612;23.066;2023-05-02T09:33:46;23.15;;;21.75;;
7985;SDS011;4038;42.612;23.066;2023-05-02T09:36:13;24.05;;;22.45;;
7985;SDS011;4038;42.612;23.066;2023-05-02T09:38:41;24.98;;;23.38;;
7985;SDS011;4038;42.612;23.066;2023-05-02T09:41:07;25.83;;;24.02;;
7985;SDS011;4038;42.612;23.066;2023-05-02T09:43:32;25.30;;;23.55;;
7985;SDS011;4038;42.612;23.066;2023-05-02T09:48:25;30.80;;;28.30;;
7985;SDS011;4038;42.612;23.066;2023-05-02T09:50:52;24.77;;;23.17;;
7985;SDS011;4038;42.612;23.066;2023-05-02T09:53:17;23.63;;;22.02;;
7985;SDS011;4038;42.612;23.066;2023-05-02T09:55:42;22.92;;;21.42;;
7985;SDS011;4038;42.612;23.066;2023-05-02T09:58:20;23.65;;;22.05;;
7985;SDS011;4038;42.612;23.066;2023-05-02T10:00:47;22.88;;;21.38;;
7985;SDS011;4038;42.612;23.066;2023-05-02T10:03:16;24.13;;;22.52;;
7985;SDS011;4038;42.612;23.066;2023-05-02T10:05:42;23.50;;;21.90;;
7985;SDS011;4038;42.612;23.066;2023-05-02T10:08:09;24.27;;;22.40;;
7985;SDS011;4038;42.612;23.066;2023-05-02T10:10:36;26.75;;;24.40;;
7985;SDS011;4038;42.612;23.066;2023-05-02T10:13:03;26.83;;;22.90;;
7985;SDS011;4038;42.612;23.066;2023-05-02T10:15:30;22.92;;;21.05;;
7985;SDS011;4038;42.612;23.066;2023-05-02T10:17:58;22.80;;;21.20;;
7985;SDS011;4038;42.612;23.066;2023-05-02T10:20:29;22.27;;;20.77;;
7985;SDS011;4038;42.612;23.066;2023-05-02T10:22:59;23.40;;;21.73;;
7985;SDS011;4038;42.612;23.066;2023-05-02T10:25:26;23.00;;;21.50;;
7985;SDS011;4038;42.612;23.066;2023-05-02T10:27:53;22.85;;;21.13;;
7985;SDS011;4038;42.612;23.066;2023-05-02T10:30:21;22.38;;;20.70;;
7985;SDS011;4038;42.612;23.066;2023-05-02T10:32:47;22.15;;;20.52;;
7985;SDS011;4038;42.612;23.066;2023-05-02T10:35:15;24.83;;;22.83;;
7985;SDS011;4038;42.612;23.066;2023-05-02T10:37:48;22.30;;;20.70;;
7985;SDS011;4038;42.612;23.066;2023-05-02T10:40:15;21.65;;;20.15;;
7985;SDS011;4038;42.612;23.066;2023-05-02T10:42:44;22.58;;;20.98;;
7985;SDS011;4038;42.612;23.066;2023-05-02T10:45:32;22.85;;;21.20;;
7985;SDS011;4038;42.612;23.066;2023-05-02T10:50:52;23.92;;;21.90;;
7985;SDS011;4038;42.612;23.066;2023-05-02T10:53:21;26.48;;;23.98;;
7985;SDS011;4038;42.612;23.066;2023-05-02T10:56:06;23.98;;;21.98;;
7985;SDS011;4038;42.612;23.066;2023-05-02T10:58:31;23.67;;;21.67;;
7985;SDS011;4038;42.612;23.066;2023-05-02T11:01:20;23.88;;;21.95;;
7985;SDS011;4038;42.612;23.066;2023-05-02T11:04:07;22.38;;;20.90;;
7985;SDS011;4038;42.612;23.066;2023-05-02T11:06:35;22.45;;;20.95;;
7985;SDS011;4038;42.612;23.066;2023-05-02T11:11:46;23.50;;;21.92;;
7985;SDS011;4038;42.612;23.066;2023-05-02T11:19:23;23.20;;;21.25;;
7985;SDS011;4038;42.612;23.066;2023-05-02T11:21:49;23.15;;;21.60;;
7985;SDS011;4038;42.612;23.066;2023-05-02T11:27:35;22.70;;;21.10;;
7985;SDS011;4038;42.612;23.066;2023-05-02T11:32:22;25.98;;;23.95;;
7985;SDS011;4038;42.612;23.066;2023-05-02T11:34:48;23.85;;;22.15;;
7985;SDS011;4038;42.612;23.066;2023-05-02T11:37:16;23.55;;;21.85;;
7985;SDS011;4038;42.612;23.066;2023-05-02T11:39:44;23.20;;;21.40;;
7985;SDS011;4038;42.612;23.066;2023-05-02T11:42:27;24.08;;;22.33;;
7985;SDS011;4038;42.612;23.066;2023-05-02T11:44:57;24.48;;;22.73;;
7985;SDS011;4038;42.612;23.066;2023-05-02T11:47:25;22.52;;;20.92;;
7985;SDS011;4038;42.612;23.066;2023-05-02T11:49:54;23.20;;;21.40;;
7985;SDS011;4038;42.612;23.066;2023-05-02T11:52:23;24.50;;;22.70;;
7985;SDS011;4038;42.612;23.066;2023-05-02T11:54:49;23.38;;;21.52;;
7985;SDS011;4038;42.612;23.066;2023-05-02T11:57:17;22.60;;;21.08;;
7985;SDS011;4038;42.612;23.066;2023-05-02T11:59:52;22.70;;;21.20;;
7985;SDS011;4038;42.612;23.066;2023-05-02T12:02:19;24.67;;;22.88;;
7985;SDS011;4038;42.612;23.066;2023-05-02T12:05:09;23.83;;;21.95;;
7985;SDS011;4038;42.612;23.066;2023-05-02T12:07:36;25.52;;;23.50;;
7985;SDS011;4038;42.612;23.066;2023-05-02T12:10:02;22.13;;;20.50;;
7985;SDS011;4038;42.612;23.066;2023-05-02T12:12:28;22.45;;;20.85;;
7985;SDS011;4038;42.612;23.066;2023-05-02T12:14:54;23.55;;;21.85;;
7985;SDS011;4038;42.612;23.066;2023-05-02T12:17:20;23.00;;;21.40;;
7985;SDS011;4038;42.612;23.066;2023-05-02T12:19:46;21.63;;;20.02;;
7985;SDS011;4038;42.612;23.066;2023-05-02T12:22:13;23.52;;;21.75;;
7985;SDS011;4038;42.612;23.066;2023-05-02T12:24:39;22.55;;;20.95;;
7985;SDS011;4038;42.612;23.066;2023-05-02T12:27:12;23.73;;;21.67;;
7985;SDS011;4038;42.612;23.066;2023-05-02T12:29:39;26.92;;;24.02;;
7985;SDS011;4038;42.612;23.066;2023-05-02T12:32:05;23.80;;;22.08;;
7985;SDS011;4038;42.612;23.066;2023-05-02T12:34:32;23.08;;;21.40;;
7985;SDS011;4038;42.612;23.066;2023-05-02T12:36:57;22.48;;;20.98;;
7985;SDS011;4038;42.612;23.066;2023-05-02T12:39:39;24.85;;;23.05;;
7985;SDS011;4038;42.612;23.066;2023-05-02T12:42:10;23.90;;;22.30;;
7985;SDS011;4038;42.612;23.066;2023-05-02T12:44:37;23.73;;;22.13;;
7985;SDS011;4038;42.612;23.066;2023-05-02T12:47:03;23.85;;;21.98;;
7985;SDS011;4038;42.612;23.066;2023-05-02T12:49:29;23.27;;;21.65;;
7985;SDS011;4038;42.612;23.066;2023-05-02T12:51:55;22.25;;;20.75;;
7985;SDS011;4038;42.612;23.066;2023-05-02T12:54:21;24.65;;;22.40;;
7985;SDS011;4038;42.612;23.066;2023-05-02T12:56:47;23.85;;;21.83;;
7985;SDS011;4038;42.612;23.066;2023-05-02T12:59:28;24.50;;;22.65;;
7985;SDS011;4038;42.612;23.066;2023-05-02T13:01:57;24.58;;;22.77;;
7985;SDS011;4038;42.612;23.066;2023-05-02T13:04:33;24.73;;;22.52;;
7985;SDS011;4038;42.612;23.066;2023-05-02T13:07:01;25.75;;;22.65;;
7985;SDS011;4038;42.612;23.066;2023-05-02T13:09:27;25.60;;;23.42;;
7985;SDS011;4038;42.612;23.066;2023-05-02T13:11:52;25.10;;;23.20;;
7985;SDS011;4038;42.612;23.066;2023-05-02T13:14:18;23.30;;;21.50;;
7985;SDS011;4038;42.612;23.066;2023-05-02T13:16:43;22.30;;;20.52;;
7985;SDS011;4038;42.612;23.066;2023-05-02T13:19:09;23.63;;;21.88;;
7985;SDS011;4038;42.612;23.066;2023-05-02T13:21:34;23.08;;;21.38;;
7985;SDS011;4038;42.612;23.066;2023-05-02T13:24:00;24.70;;;22.67;;
7985;SDS011;4038;42.612;23.066;2023-05-02T13:26:28;22.83;;;21.13;;
7985;SDS011;4038;42.612;23.066;2023-05-02T13:28:55;22.92;;;21.25;;
7985;SDS011;4038;42.612;23.066;2023-05-02T13:31:20;22.77;;;21.17;;
7985;SDS011;4038;42.612;23.066;2023-05-02T13:33:46;24.83;;;22.85;;
7985;SDS011;4038;42.612;23.066;2023-05-02T13:36:11;22.70;;;20.98;;
7985;SDS011;4038;42.612;23.066;2023-05-02T13:38:36;23.27;;;21.58;;
7985;SDS011;4038;42.612;23.066;2023-05-02T13:41:02;23.60;;;22.00;;
7985;SDS011;4038;42.612;23.066;2023-05-02T13:43:27;24.67;;;22.83;;
7985;SDS011;4038;42.612;23.066;2023-05-02T13:45:53;23.70;;;21.92;;
7985;SDS011;4038;42.612;23.066;2023-05-02T13:48:18;22.95;;;21.17;;
7985;SDS011;4038;42.612;23.066;2023-05-02T13:50:44;21.98;;;20.38;;
7985;SDS011;4038;42.612;23.066;2023-05-02T13:53:09;22.30;;;20.55;;
7985;SDS011;4038;42.612;23.066;2023-05-02T13:55:35;23.05;;;21.35;;
7985;SDS011;4038;42.612;23.066;2023-05-02T13:58:01;24.10;;;22.50;;
7985;SDS011;4038;42.612;23.066;2023-05-02T14:00:26;22.75;;;21.17;;
7985;SDS011;4038;42.612;23.066;2023-05-02T14:02:53;23.02;;;21.52;;
7985;SDS011;4038;42.612;23.066;2023-05-02T14:05:18;22.90;;;21.40;;
7985;SDS011;4038;42.612;23.066;2023-05-02T14:07:44;23.23;;;21.65;;
7985;SDS011;4038;42.612;23.066;2023-05-02T14:10:10;22.70;;;21.00;;
7985;SDS011;4038;42.612;23.066;2023-05-02T14:12:35;22.85;;;21.33;;
7985;SDS011;4038;42.612;23.066;2023-05-02T14:15:01;23.60;;;21.65;;
7985;SDS011;4038;42.612;23.066;2023-05-02T14:17:26;23.88;;;22.17;;
7985;SDS011;4038;42.612;23.066;2023-05-02T14:19:52;23.98;;;22.23;;
7985;SDS011;4038;42.612;23.066;2023-05-02T14:22:17;22.13;;;20.52;;
7985;SDS011;4038;42.612;23.066;2023-05-02T14:24:43;23.08;;;21.23;;
7985;SDS011;4038;42.612;23.066;2023-05-02T14:27:08;23.75;;;22.05;;
7985;SDS011;4038;42.612;23.066;2023-05-02T14:29:37;23.10;;;21.48;;
7985;SDS011;4038;42.612;23.066;2023-05-02T14:32:04;21.73;;;20.02;;
7985;SDS011;4038;42.612;23.066;2023-05-02T14:34:29;22.15;;;20.15;;
7985;SDS011;4038;42.612;23.066;2023-05-02T14:36:55;21.40;;;19.85;;
7985;SDS011;4038;42.612;23.066;2023-05-02T14:39:20;21.75;;;20.33;;
7985;SDS011;4038;42.612;23.066;2023-05-02T14:41:46;23.02;;;21.27;;
7985;SDS011;4038;42.612;23.066;2023-05-02T14:44:11;22.42;;;20.70;;
7985;SDS011;4038;42.612;23.066;2023-05-02T14:46:36;20.23;;;18.83;;
7985;SDS011;4038;42.612;23.066;2023-05-02T14:49:02;21.52;;;19.92;;
7985;SDS011;4038;42.612;23.066;2023-05-02T14:51:27;21.95;;;20.40;;
7985;SDS011;4038;42.612;23.066;2023-05-02T14:53:53;21.58;;;19.98;;
7985;SDS011;4038;42.612;23.066;2023-05-02T14:56:18;21.45;;;19.52;;
7985;SDS011;4038;42.612;23.066;2023-05-02T14:58:44;20.42;;;19.10;;
7985;SDS011;4038;42.612;23.066;2023-05-02T15:01:20;21.42;;;20.02;;
7985;SDS011;4038;42.612;23.066;2023-05-02T15:03:46;22.05;;;20.10;;
7985;SDS011;4038;42.612;23.066;2023-05-02T15:06:13;21.15;;;19.67;;
7985;SDS011;4038;42.612;23.066;2023-05-02T15:08:42;21.02;;;19.65;;
7985;SDS011;4038;42.612;23.066;2023-05-02T15:11:09;22.05;;;20.45;;
7985;SDS011;4038;42.612;23.066;2023-05-02T15:13:35;23.35;;;21.48;;
7985;SDS011;4038;42.612;23.066;2023-05-02T15:16:01;21.85;;;20.25;;
7985;SDS011;4038;42.612;23.066;2023-05-02T15:18:27;20.98;;;19.58;;
7985;SDS011;4038;42.612;23.066;2023-05-02T15:20:53;21.73;;;20.30;;